createdAt,value
2018-07-15T00:00:11.741Z,24.58
2018-07-15T00:01:11.821Z,24.62
2018-07-15T00:02:11.781Z,24.59
2018-07-15T00:03:11.827Z,24.56
2018-07-15T00:04:11.820Z,24.65
2018-07-15T00:05:11.776Z,24.58
2018-07-15T00:06:11.768Z,24.58
2018-07-15T00:07:12.033Z,24.61
2018-07-15T00:08:11.770Z,24.61
2018-07-15T00:09:12.510Z,24.61
2018-07-15T00:10:11.883Z,24.63
2018-07-15T00:11:11.856Z,24.65
2018-07-15T00:12:11.821Z,24.65
2018-07-15T00:13:11.879Z,24.61
2018-07-15T00:14:11.835Z,24.56
2018-07-15T00:15:11.804Z,24.68
2018-07-15T00:16:11.871Z,24.59
2018-07-15T00:17:11.872Z,24.61
2018-07-15T00:18:11.800Z,24.62
2018-07-15T00:19:11.830Z,24.65
2018-07-15T00:20:11.816Z,24.66
2018-07-15T00:21:11.879Z,24.66
2018-07-15T00:22:11.882Z,24.63
2018-07-15T00:23:11.862Z,24.62
2018-07-15T00:24:11.867Z,24.66
2018-07-15T00:25:11.932Z,24.62
2018-07-15T00:26:11.834Z,24.66
2018-07-15T00:27:11.910Z,24.61
2018-07-15T00:28:11.839Z,24.66
2018-07-15T00:29:11.823Z,24.63
2018-07-15T00:30:13.232Z,24.65
2018-07-15T00:31:11.886Z,24.63
2018-07-15T00:32:11.845Z,24.63
2018-07-15T00:33:11.899Z,24.61
2018-07-15T00:34:11.809Z,24.58
2018-07-15T00:35:11.895Z,24.58
2018-07-15T00:36:11.836Z,24.62
2018-07-15T00:37:11.884Z,24.65
2018-07-15T00:38:11.861Z,24.69
2018-07-15T00:39:11.862Z,24.69
2018-07-15T00:40:11.853Z,24.69
2018-07-15T00:41:11.845Z,24.62
2018-07-15T00:42:11.863Z,24.74
2018-07-15T00:43:11.884Z,24.75
2018-07-15T00:44:11.851Z,24.66
2018-07-15T00:45:11.875Z,24.62
2018-07-15T00:46:11.830Z,24.77
2018-07-15T00:47:11.886Z,24.61
2018-07-15T00:48:11.959Z,24.69
2018-07-15T00:50:16.522Z,24.66
2018-07-15T00:50:28.058Z,24.69
2018-07-15T00:51:27.988Z,24.66
2018-07-15T00:52:29.505Z,24.79
2018-07-15T00:53:28.897Z,24.74
2018-07-15T00:54:28.530Z,24.77
2018-07-15T00:55:28.062Z,24.69
2018-07-15T00:56:28.158Z,24.79
2018-07-15T00:57:27.929Z,24.74
2018-07-15T00:58:27.982Z,24.69
2018-07-15T00:59:28.013Z,24.74
2018-07-15T01:00:28.031Z,24.75
2018-07-15T01:01:28.013Z,24.75
2018-07-15T01:02:28.035Z,24.74
2018-07-15T01:03:28.069Z,24.71
2018-07-15T01:04:28.005Z,24.77
2018-07-15T01:05:28.386Z,24.75
2018-07-15T01:06:28.023Z,24.75
2018-07-15T01:07:28.095Z,24.74
2018-07-15T01:08:28.029Z,24.74
2018-07-15T01:09:28.036Z,24.68
2018-07-15T01:10:27.981Z,24.75
2018-07-15T01:11:28.144Z,24.75
2018-07-15T01:12:28.064Z,24.75
2018-07-15T01:13:28.027Z,24.79
2018-07-15T01:14:28.022Z,24.78
2018-07-15T01:15:28.067Z,24.77
2018-07-15T01:20:44.899Z,24.78
2018-07-15T01:20:56.573Z,24.75
2018-07-15T01:21:56.551Z,24.71
2018-07-15T01:22:56.582Z,24.79
2018-07-15T01:23:56.547Z,24.81
2018-07-15T01:24:56.578Z,24.81
2018-07-15T01:25:56.557Z,24.75
2018-07-15T01:26:56.559Z,24.74
2018-07-15T01:27:56.544Z,24.77
2018-07-15T01:28:58.748Z,24.79
2018-07-15T01:29:56.583Z,24.77
2018-07-15T01:30:56.484Z,24.79
2018-07-15T01:31:56.619Z,24.79
2018-07-15T01:32:56.651Z,24.85
2018-07-15T01:33:57.168Z,24.82
2018-07-15T01:34:56.702Z,24.79
2018-07-15T01:35:56.641Z,24.79
2018-07-15T01:36:56.571Z,24.82
2018-07-15T01:37:56.624Z,24.75
2018-07-15T01:38:56.589Z,24.77
2018-07-15T01:39:56.641Z,24.78
2018-07-15T01:40:56.584Z,24.81
2018-07-15T01:41:56.632Z,24.81
2018-07-15T01:42:56.629Z,24.82
2018-07-15T01:43:56.567Z,24.85
2018-07-15T01:44:56.553Z,24.81
2018-07-15T01:45:56.602Z,24.84
2018-07-15T01:46:56.636Z,24.85
2018-07-15T01:47:56.642Z,24.85
2018-07-15T01:48:56.630Z,24.85
2018-07-15T01:49:58.597Z,24.84
2018-07-15T01:50:56.579Z,24.82
2018-07-15T01:51:56.648Z,24.86
2018-07-15T01:52:56.664Z,24.74
2018-07-15T01:53:56.559Z,24.78
2018-07-15T01:56:01.225Z,24.84
2018-07-15T01:56:14.105Z,24.81
2018-07-15T01:57:12.723Z,24.85
2018-07-15T01:58:12.693Z,24.84
2018-07-15T01:59:12.721Z,24.81
2018-07-15T02:00:12.728Z,24.79
2018-07-15T02:01:12.716Z,24.84
2018-07-15T02:02:12.716Z,24.85
2018-07-15T02:03:12.752Z,24.78
2018-07-15T02:04:12.720Z,24.85
2018-07-15T02:05:12.710Z,24.81
2018-07-15T02:06:12.741Z,24.78
2018-07-15T02:07:12.700Z,24.86
2018-07-15T02:08:12.756Z,24.78
2018-07-15T02:09:12.733Z,24.79
2018-07-15T02:10:12.817Z,24.86
2018-07-15T02:11:12.726Z,24.86
2018-07-15T02:12:12.748Z,24.81
2018-07-15T02:13:12.707Z,24.77
2018-07-15T02:14:12.711Z,24.86
2018-07-15T02:15:12.794Z,24.88
2018-07-15T02:16:12.832Z,24.79
2018-07-15T02:17:12.756Z,24.81
2018-07-15T02:18:12.685Z,24.81
2018-07-15T02:19:12.765Z,24.78
2018-07-15T02:20:12.698Z,24.92
2018-07-15T02:21:12.741Z,24.86
2018-07-15T02:22:12.741Z,24.84
2018-07-15T02:23:12.866Z,24.84
2018-07-15T02:24:12.764Z,24.77
2018-07-15T02:25:12.732Z,24.82
2018-07-15T02:26:12.741Z,24.88
2018-07-15T02:27:12.717Z,24.81
2018-07-15T02:28:12.840Z,24.78
2018-07-15T02:29:12.779Z,24.86
2018-07-15T02:30:12.791Z,24.84
2018-07-15T02:31:13.060Z,24.86
2018-07-15T02:32:12.786Z,24.78
2018-07-15T02:33:12.794Z,24.85
2018-07-15T02:34:12.838Z,24.78
2018-07-15T02:35:12.803Z,24.82
2018-07-15T02:36:12.812Z,24.86
2018-07-15T02:37:12.808Z,24.86
2018-07-15T02:38:12.772Z,24.84
2018-07-15T02:39:12.770Z,24.81
2018-07-15T02:40:12.811Z,24.79
2018-07-15T02:41:12.832Z,24.86
2018-07-15T02:42:12.749Z,24.84
2018-07-15T02:43:12.886Z,24.82
2018-07-15T02:44:12.836Z,24.92
2018-07-15T02:45:12.859Z,24.92
2018-07-15T02:46:12.783Z,24.82
2018-07-15T02:47:12.852Z,24.94
2018-07-15T02:48:12.838Z,24.92
2018-07-15T02:49:12.832Z,24.96
2018-07-15T02:50:12.872Z,24.94
2018-07-15T02:51:12.821Z,24.93
2018-07-15T02:52:12.833Z,24.88
2018-07-15T02:53:12.773Z,24.88
2018-07-15T02:54:12.849Z,24.92
2018-07-15T02:55:12.837Z,24.88
2018-07-15T02:56:12.876Z,24.85
2018-07-15T02:57:12.818Z,24.84
2018-07-15T02:58:12.838Z,24.96
2018-07-15T02:59:12.824Z,24.92
2018-07-15T03:00:12.812Z,24.92
2018-07-15T03:01:12.894Z,24.88
2018-07-15T03:02:12.870Z,24.88
2018-07-15T03:03:12.849Z,24.86
2018-07-15T03:04:12.834Z,24.88
2018-07-15T03:05:12.813Z,24.84
2018-07-15T03:06:15.351Z,24.78
2018-07-15T03:07:12.832Z,24.89
2018-07-15T03:08:12.852Z,24.97
2018-07-15T03:09:12.791Z,24.94
2018-07-15T03:10:12.795Z,24.92
2018-07-15T03:11:12.873Z,24.94
2018-07-15T03:12:12.869Z,24.84
2018-07-15T03:13:12.845Z,24.81
2018-07-15T03:14:12.884Z,24.89
2018-07-15T03:15:12.898Z,24.96
2018-07-15T03:16:12.820Z,24.93
2018-07-15T03:17:13.041Z,24.92
2018-07-15T03:18:12.901Z,24.89
2018-07-15T03:19:12.915Z,24.93
2018-07-15T03:20:12.916Z,24.93
2018-07-15T03:21:12.903Z,24.94
2018-07-15T03:22:12.904Z,24.89
2018-07-15T03:23:12.857Z,24.97
2018-07-15T03:24:12.907Z,24.93
2018-07-15T03:25:12.820Z,24.96
2018-07-15T03:26:12.929Z,24.81
2018-07-15T03:27:12.890Z,24.88
2018-07-15T03:28:12.871Z,24.94
2018-07-15T03:29:12.877Z,24.89
2018-07-15T03:30:12.879Z,24.93
2018-07-15T03:31:12.862Z,24.84
2018-07-15T03:32:12.879Z,24.92
2018-07-15T03:33:12.841Z,24.93
2018-07-15T03:34:13.049Z,24.94
2018-07-15T03:35:12.824Z,24.93
2018-07-15T03:36:12.857Z,24.86
2018-07-15T03:37:12.868Z,24.92
2018-07-15T03:38:12.847Z,24.86
2018-07-15T03:39:12.887Z,24.86
2018-07-15T03:40:12.887Z,24.81
2018-07-15T03:41:12.864Z,24.82
2018-07-15T03:42:12.880Z,24.81
2018-07-15T03:43:12.902Z,24.96
2018-07-15T03:44:12.908Z,24.92
2018-07-15T03:45:12.863Z,24.89
2018-07-15T03:46:12.924Z,24.89
2018-07-15T03:47:12.983Z,24.92
2018-07-15T03:48:12.885Z,24.92
2018-07-15T03:49:12.908Z,24.81
2018-07-15T03:50:12.908Z,24.93
2018-07-15T03:51:12.939Z,24.89
2018-07-15T03:52:12.922Z,24.97
2018-07-15T03:53:12.937Z,24.94
2018-07-15T03:54:12.858Z,24.89
2018-07-15T03:55:12.958Z,24.88
2018-07-15T03:56:12.885Z,24.93
2018-07-15T03:57:12.926Z,24.94
2018-07-15T03:58:12.933Z,24.88
2018-07-15T03:59:12.981Z,24.89
2018-07-15T04:00:12.971Z,24.93
2018-07-15T04:01:12.922Z,24.88
2018-07-15T04:02:12.953Z,24.89
2018-07-15T04:03:12.886Z,24.85
2018-07-15T04:04:12.946Z,24.86
2018-07-15T04:05:12.884Z,24.86
2018-07-15T04:06:12.899Z,24.93
2018-07-15T04:07:12.928Z,24.92
2018-07-15T04:08:12.962Z,24.89
2018-07-15T04:09:12.901Z,24.89
2018-07-15T04:10:12.909Z,24.94
2018-07-15T04:11:12.941Z,24.99
2018-07-15T04:12:12.895Z,24.92
2018-07-15T04:13:12.947Z,24.92
2018-07-15T04:14:12.973Z,24.81
2018-07-15T04:15:12.909Z,24.92
2018-07-15T04:16:12.919Z,24.92
2018-07-15T04:17:12.972Z,24.94
2018-07-15T04:18:13.003Z,24.92
2018-07-15T04:19:12.956Z,24.89
2018-07-15T04:20:12.990Z,24.93
2018-07-15T04:21:12.949Z,24.93
2018-07-15T04:22:12.949Z,24.94
2018-07-15T04:23:12.893Z,24.94
2018-07-15T04:24:12.938Z,24.92
2018-07-15T04:25:12.976Z,24.81
2018-07-15T04:26:12.961Z,24.89
2018-07-15T04:27:12.937Z,24.92
2018-07-15T04:28:12.988Z,24.89
2018-07-15T04:29:12.982Z,24.92
2018-07-15T04:30:12.981Z,24.89
2018-07-15T04:31:12.960Z,24.92
2018-07-15T04:32:12.948Z,24.92
2018-07-15T04:33:12.948Z,24.79
2018-07-15T04:34:12.962Z,24.81
2018-07-15T04:35:12.932Z,24.86
2018-07-15T04:36:12.966Z,24.93
2018-07-15T04:37:13.009Z,24.84
2018-07-15T04:38:13.007Z,24.92
2018-07-15T04:39:12.985Z,24.88
2018-07-15T04:40:12.980Z,24.92
2018-07-15T04:41:12.973Z,24.88
2018-07-15T04:42:12.981Z,24.82
2018-07-15T04:47:30.343Z,24.92
2018-07-15T04:52:00.531Z,24.84
2018-07-15T04:52:11.995Z,24.93
2018-07-15T04:53:11.978Z,24.97
2018-07-15T04:54:12.014Z,24.96
2018-07-15T04:55:12.018Z,24.93
2018-07-15T04:56:12.023Z,24.94
2018-07-15T04:57:12.079Z,24.88
2018-07-15T04:58:12.067Z,24.96
2018-07-15T04:59:12.078Z,24.89
2018-07-15T05:00:12.108Z,24.84
2018-07-15T05:01:12.083Z,24.92
2018-07-15T05:02:12.145Z,24.93
2018-07-15T05:03:12.054Z,24.97
2018-07-15T05:04:12.081Z,24.93
2018-07-15T05:05:12.064Z,24.94
2018-07-15T05:06:11.993Z,24.93
2018-07-15T05:07:12.045Z,24.88
2018-07-15T05:08:12.036Z,24.94
2018-07-15T05:09:12.733Z,24.88
2018-07-15T05:10:11.998Z,24.89
2018-07-15T05:11:12.185Z,24.89
2018-07-15T05:12:12.086Z,25
2018-07-15T05:13:12.082Z,24.94
2018-07-15T05:14:12.060Z,24.89
2018-07-15T05:15:12.176Z,24.93
2018-07-15T05:16:12.109Z,24.93
2018-07-15T05:17:12.531Z,24.85
2018-07-15T05:18:12.177Z,24.92
2018-07-15T05:19:12.134Z,24.99
2018-07-15T05:20:12.266Z,24.93
2018-07-15T05:21:12.138Z,24.81
2018-07-15T05:22:12.117Z,24.88
2018-07-15T05:23:12.122Z,24.89
2018-07-15T05:24:12.088Z,24.96
2018-07-15T05:25:12.119Z,24.93
2018-07-15T05:26:12.093Z,24.99
2018-07-15T05:27:12.101Z,25
2018-07-15T05:28:12.139Z,24.97
2018-07-15T05:29:12.251Z,24.86
2018-07-15T05:30:12.103Z,24.88
2018-07-15T05:31:12.145Z,24.89
2018-07-15T05:32:12.114Z,24.96
2018-07-15T05:33:12.138Z,24.96
2018-07-15T05:34:12.062Z,24.99
2018-07-15T05:35:12.096Z,24.97
2018-07-15T05:36:12.050Z,24.96
2018-07-15T05:37:12.116Z,24.92
2018-07-15T05:38:12.076Z,24.99
2018-07-15T05:39:12.148Z,24.93
2018-07-15T05:40:12.165Z,24.93
2018-07-15T05:41:12.060Z,24.94
2018-07-15T05:42:12.119Z,24.92
2018-07-15T05:43:12.190Z,25
2018-07-15T05:44:12.194Z,25.04
2018-07-15T05:45:12.095Z,24.89
2018-07-15T05:46:12.124Z,24.96
2018-07-15T05:47:12.436Z,25
2018-07-15T05:48:12.136Z,24.92
2018-07-15T05:49:12.190Z,24.97
2018-07-15T05:50:12.154Z,24.94
2018-07-15T05:51:12.098Z,24.94
2018-07-15T05:52:12.695Z,24.94
2018-07-15T05:53:12.676Z,24.94
2018-07-15T05:54:12.119Z,24.99
2018-07-15T05:55:12.151Z,24.97
2018-07-15T05:56:12.158Z,24.99
2018-07-15T05:57:12.273Z,24.94
2018-07-15T05:58:12.250Z,24.99
2018-07-15T05:59:12.183Z,25.01
2018-07-15T06:00:12.118Z,25
2018-07-15T06:01:12.089Z,24.96
2018-07-15T06:02:12.160Z,25
2018-07-15T06:03:12.135Z,24.89
2018-07-15T06:04:12.156Z,25.01
2018-07-15T06:05:12.151Z,25.01
2018-07-15T06:06:12.150Z,25.01
2018-07-15T06:07:12.209Z,24.96
2018-07-15T06:08:12.119Z,24.96
2018-07-15T06:09:12.163Z,24.92
2018-07-15T06:10:12.128Z,24.99
2018-07-15T06:11:12.139Z,24.93
2018-07-15T06:12:12.159Z,24.99
2018-07-15T06:13:12.127Z,25.03
2018-07-15T06:14:12.123Z,25.01
2018-07-15T06:15:12.114Z,24.88
2018-07-15T06:16:12.110Z,24.92
2018-07-15T06:17:12.408Z,24.96
2018-07-15T06:18:12.261Z,25.03
2018-07-15T06:19:12.163Z,25.01
2018-07-15T06:20:12.202Z,24.89
2018-07-15T06:21:12.230Z,24.97
2018-07-15T06:22:12.203Z,24.97
2018-07-15T06:23:12.201Z,24.89
2018-07-15T06:24:13.019Z,24.97
2018-07-15T06:25:12.224Z,25.03
2018-07-15T06:26:12.235Z,25.04
2018-07-15T06:27:12.193Z,25
2018-07-15T06:28:12.191Z,24.99
2018-07-15T06:29:12.168Z,25
2018-07-15T06:30:12.197Z,24.97
2018-07-15T06:31:12.253Z,25.01
2018-07-15T06:32:12.219Z,24.94
2018-07-15T06:33:12.159Z,24.99
2018-07-15T06:34:12.228Z,25
2018-07-15T06:35:12.317Z,25.03
2018-07-15T06:36:12.189Z,25.04
2018-07-15T06:37:12.282Z,25
2018-07-15T06:38:12.302Z,24.96
2018-07-15T06:39:12.235Z,25.01
2018-07-15T06:40:12.196Z,24.97
2018-07-15T06:41:12.214Z,24.99
2018-07-15T06:42:12.762Z,25.03
2018-07-15T06:43:12.181Z,25.01
2018-07-15T06:44:12.160Z,25.04
2018-07-15T06:45:12.216Z,24.99
2018-07-15T06:46:12.224Z,24.99
2018-07-15T06:47:12.263Z,25.04
2018-07-15T06:48:12.291Z,25.04
2018-07-15T06:49:12.332Z,25.04
2018-07-15T06:50:12.225Z,25.04
2018-07-15T06:51:12.212Z,25.07
2018-07-15T06:52:12.162Z,25.06
2018-07-15T06:53:12.189Z,25.04
2018-07-15T06:54:12.253Z,25.07
2018-07-15T06:55:12.184Z,24.99
2018-07-15T06:56:12.253Z,25.06
2018-07-15T06:57:12.251Z,25.01
2018-07-15T06:58:12.334Z,25.04
2018-07-15T06:59:12.209Z,25.07
2018-07-15T07:00:12.187Z,25.04
2018-07-15T07:01:12.244Z,25.01
2018-07-15T07:02:12.229Z,25.04
2018-07-15T07:03:12.239Z,25.11
2018-07-15T07:04:12.312Z,25.09
2018-07-15T07:05:12.302Z,25.06
2018-07-15T07:06:12.205Z,25.04
2018-07-15T07:07:12.272Z,25.06
2018-07-15T07:08:12.294Z,25.12
2018-07-15T07:09:12.255Z,25.12
2018-07-15T07:10:12.897Z,25.07
2018-07-15T07:11:25.222Z,25.12
2018-07-15T07:12:12.502Z,25.06
2018-07-15T07:13:12.227Z,25.15
2018-07-15T07:14:13.151Z,25.09
2018-07-15T07:15:12.264Z,25.07
2018-07-15T07:16:17.490Z,24.94
2018-07-15T07:17:12.252Z,25.07
2018-07-15T07:18:12.465Z,25.03
2018-07-15T07:19:12.349Z,25.04
2018-07-15T07:20:12.319Z,25.07
2018-07-15T07:21:12.272Z,25.06
2018-07-15T07:22:12.509Z,25.09
2018-07-15T07:23:12.332Z,25.06
2018-07-15T07:24:12.345Z,25.06
2018-07-15T07:25:26.305Z,25.03
2018-07-15T07:26:12.566Z,25.07
2018-07-15T07:27:12.349Z,25.06
2018-07-15T07:28:12.442Z,25.06
2018-07-15T07:29:12.376Z,25
2018-07-15T07:30:12.365Z,25.07
2018-07-15T07:31:12.344Z,25.07
2018-07-15T07:32:12.348Z,25.06
2018-07-15T07:33:12.300Z,25.11
2018-07-15T07:34:12.322Z,25.03
2018-07-15T07:35:12.344Z,25.06
2018-07-15T07:36:12.375Z,25.04
2018-07-15T07:37:12.358Z,25.06
2018-07-15T07:38:12.341Z,25.07
2018-07-15T07:39:12.271Z,25.09
2018-07-15T07:40:12.294Z,25
2018-07-15T07:41:12.425Z,25
2018-07-15T07:42:12.265Z,25.03
2018-07-15T07:43:12.315Z,25.06
2018-07-15T07:44:12.277Z,25.06
2018-07-15T07:45:12.310Z,25.07
2018-07-15T07:46:12.389Z,25.07
2018-07-15T07:47:12.336Z,25.06
2018-07-15T07:48:12.360Z,25.07
2018-07-15T07:49:12.355Z,25.09
2018-07-15T07:50:12.338Z,25.09
2018-07-15T07:51:12.346Z,25.12
2018-07-15T07:52:12.402Z,25.06
2018-07-15T07:53:12.840Z,25.07
2018-07-15T07:54:12.357Z,25.03
2018-07-15T07:55:12.375Z,25.11
2018-07-15T07:56:12.359Z,25.07
2018-07-15T07:57:12.311Z,25.09
2018-07-15T07:58:12.493Z,25.07
2018-07-15T07:59:12.398Z,25.07
2018-07-15T08:00:12.373Z,25.09
2018-07-15T08:01:12.354Z,25.07
2018-07-15T08:02:12.366Z,25.06
2018-07-15T08:03:12.399Z,25.07
2018-07-15T08:04:12.409Z,25.09
2018-07-15T08:05:12.338Z,25.11
2018-07-15T08:06:12.396Z,25.16
2018-07-15T08:07:12.374Z,25.07
2018-07-15T08:08:12.350Z,25.11
2018-07-15T08:09:12.360Z,25.14
2018-07-15T08:10:12.315Z,25.07
2018-07-15T08:11:12.403Z,25.09
2018-07-15T08:12:12.347Z,25.15
2018-07-15T08:13:13.610Z,25.21
2018-07-15T08:14:12.371Z,25.12
2018-07-15T08:15:12.450Z,25.07
2018-07-15T08:16:12.435Z,25.14
2018-07-15T08:17:12.401Z,25.14
2018-07-15T08:18:12.363Z,25.11
2018-07-15T08:19:12.498Z,25.09
2018-07-15T08:20:12.425Z,25.09
2018-07-15T08:21:12.415Z,25.14
2018-07-15T08:22:12.388Z,25.14
2018-07-15T08:23:12.741Z,25.16
2018-07-15T08:24:12.430Z,25.09
2018-07-15T08:25:12.369Z,25.12
2018-07-15T08:26:12.343Z,25.18
2018-07-15T08:27:12.394Z,25.21
2018-07-15T08:28:12.538Z,25.18
2018-07-15T08:29:12.408Z,25.21
2018-07-15T08:30:12.388Z,25.19
2018-07-15T08:31:12.394Z,25.22
2018-07-15T08:32:12.382Z,25.18
2018-07-15T08:33:12.370Z,25.22
2018-07-15T08:34:12.441Z,25.14
2018-07-15T08:35:12.376Z,25.12
2018-07-15T08:36:12.428Z,25.18
2018-07-15T08:37:12.462Z,25.25
2018-07-15T08:38:12.429Z,25.16
2018-07-15T08:39:12.462Z,25.18
2018-07-15T08:40:12.427Z,25.16
2018-07-15T08:41:12.492Z,25.16
2018-07-15T08:42:12.431Z,25.19
2018-07-15T08:43:12.384Z,25.15
2018-07-15T08:44:12.479Z,25.15
2018-07-15T08:45:12.470Z,25.16
2018-07-15T08:46:12.471Z,25.18
2018-07-15T08:47:12.452Z,25.16
2018-07-15T08:48:12.432Z,25.21
2018-07-15T08:49:12.409Z,25.16
2018-07-15T08:50:12.456Z,25.18
2018-07-15T08:53:19.893Z,25.15
2018-07-15T08:53:31.392Z,25.14
2018-07-15T08:54:31.428Z,25.19
2018-07-15T08:55:31.384Z,25.21
2018-07-15T08:56:31.326Z,25.14
2018-07-15T08:57:31.303Z,25.16
2018-07-15T08:58:31.407Z,25.16
2018-07-15T08:59:31.349Z,25.19
2018-07-15T09:00:31.377Z,25.15
2018-07-15T09:01:31.382Z,25.09
2018-07-15T09:02:31.359Z,25.19
2018-07-15T09:03:31.443Z,25.21
2018-07-15T09:04:31.375Z,25.24
2018-07-15T09:05:31.447Z,25.11
2018-07-15T09:06:31.382Z,25.12
2018-07-15T09:07:31.422Z,25.16
2018-07-15T09:08:31.483Z,25.16
2018-07-15T09:09:31.394Z,25.22
2018-07-15T09:10:31.469Z,25.18
2018-07-15T09:11:31.375Z,25.16
2018-07-15T09:12:31.478Z,25.15
2018-07-15T09:13:31.399Z,25.16
2018-07-15T09:14:31.372Z,25.14
2018-07-15T09:15:31.324Z,25.15
2018-07-15T09:16:31.389Z,25.14
2018-07-15T09:17:31.473Z,25.18
2018-07-15T09:18:31.525Z,25.21
2018-07-15T09:19:31.480Z,25.19
2018-07-15T09:20:31.383Z,25.15
2018-07-15T09:21:31.360Z,25.16
2018-07-15T09:22:31.479Z,25.19
2018-07-15T09:23:31.533Z,25.18
2018-07-15T09:24:31.519Z,25.15
2018-07-15T09:25:31.483Z,25.24
2018-07-15T09:26:31.544Z,25.24
2018-07-15T09:27:31.348Z,25.14
2018-07-15T09:28:31.794Z,25.22
2018-07-15T09:29:31.398Z,25.26
2018-07-15T09:30:31.372Z,25.22
2018-07-15T09:31:31.412Z,25.25
2018-07-15T09:32:31.447Z,25.25
2018-07-15T09:33:31.420Z,25.18
2018-07-15T09:34:31.396Z,25.21
2018-07-15T09:39:48.899Z,25.18
2018-07-15T09:40:00.675Z,25.29
2018-07-15T09:41:00.360Z,25.18
2018-07-15T09:42:00.294Z,25.26
2018-07-15T09:43:00.299Z,25.25
2018-07-15T09:44:00.351Z,25.24
2018-07-15T09:45:00.313Z,25.16
2018-07-15T09:46:00.304Z,25.26
2018-07-15T09:47:00.326Z,25.21
2018-07-15T09:48:00.303Z,25.22
2018-07-15T09:49:00.281Z,25.24
2018-07-15T09:50:00.341Z,25.22
2018-07-15T09:51:00.328Z,25.29
2018-07-15T09:52:00.339Z,25.24
2018-07-15T09:53:00.333Z,25.25
2018-07-15T09:54:00.417Z,25.25
2018-07-15T09:55:00.349Z,25.3
2018-07-15T09:56:00.359Z,25.21
2018-07-15T09:57:00.362Z,25.26
2018-07-15T09:58:00.344Z,25.26
2018-07-15T09:59:00.351Z,25.16
2018-07-15T10:00:00.342Z,25.19
2018-07-15T10:01:00.343Z,25.24
2018-07-15T10:02:00.354Z,25.06
2018-07-15T10:03:00.411Z,25.24
2018-07-15T10:04:00.648Z,25.21
2018-07-15T10:05:00.445Z,25.18
2018-07-15T10:06:00.397Z,25.25
2018-07-15T10:07:00.377Z,25.25
2018-07-15T10:08:00.367Z,25.19
2018-07-15T10:09:00.364Z,25.24
2018-07-15T10:10:00.403Z,25.18
2018-07-15T10:11:00.383Z,25.25
2018-07-15T10:12:00.344Z,25.19
2018-07-15T10:13:00.362Z,25.3
2018-07-15T10:14:00.406Z,25.25
2018-07-15T10:15:00.388Z,25.18
2018-07-15T10:16:00.365Z,25.14
2018-07-15T10:17:00.393Z,25.19
2018-07-15T10:18:00.371Z,25.14
2018-07-15T10:19:00.490Z,25.24
2018-07-15T10:20:00.502Z,25.15
2018-07-15T10:21:00.402Z,25.19
2018-07-15T10:22:00.403Z,25.19
2018-07-15T10:23:00.441Z,25.21
2018-07-15T10:24:00.424Z,25.12
2018-07-15T10:25:00.431Z,25.25
2018-07-15T10:26:00.433Z,25.21
2018-07-15T10:27:00.433Z,25.25
2018-07-15T10:28:00.417Z,25.29
2018-07-15T10:29:00.423Z,25.26
2018-07-15T10:30:00.369Z,25.18
2018-07-15T10:31:00.464Z,25.18
2018-07-15T10:32:00.447Z,25.24
2018-07-15T10:33:00.521Z,25.16
2018-07-15T10:34:00.476Z,25.24
2018-07-15T10:35:00.459Z,25.26
2018-07-15T10:36:00.442Z,25.29
2018-07-15T10:37:00.405Z,25.24
2018-07-15T10:38:00.501Z,25.18
2018-07-15T10:39:01.870Z,25.21
2018-07-15T10:40:01.557Z,25.14
2018-07-15T10:41:00.473Z,25.22
2018-07-15T10:42:00.399Z,25.24
2018-07-15T10:43:00.408Z,25.25
2018-07-15T10:44:00.399Z,25.14
2018-07-15T10:45:00.882Z,25.14
2018-07-15T10:46:00.446Z,25.24
2018-07-15T10:47:00.561Z,25.18
2018-07-15T10:48:00.392Z,25.16
2018-07-15T10:49:00.392Z,25.16
2018-07-15T10:50:00.502Z,25.21
2018-07-15T10:51:00.458Z,25.24
2018-07-15T10:52:00.440Z,25.14
2018-07-15T10:53:00.617Z,25.18
2018-07-15T10:54:00.467Z,25.14
2018-07-15T10:55:00.430Z,25.19
2018-07-15T10:56:00.491Z,25.21
2018-07-15T10:57:00.498Z,25.18
2018-07-15T10:58:00.455Z,25.21
2018-07-15T10:59:00.509Z,25.18
2018-07-15T11:00:00.644Z,25.18
2018-07-15T11:01:00.598Z,25.21
2018-07-15T11:02:00.488Z,25.15
2018-07-15T11:03:00.516Z,25.22
2018-07-15T11:04:00.517Z,25.09
2018-07-15T11:05:00.479Z,25.24
2018-07-15T11:06:00.523Z,25.18
2018-07-15T11:07:00.701Z,25.21
2018-07-15T11:08:00.863Z,25.11
2018-07-15T11:09:00.805Z,25.11
2018-07-15T11:10:00.454Z,25.25
2018-07-15T11:11:00.515Z,25.14
2018-07-15T11:12:00.543Z,25.21
2018-07-15T11:13:00.450Z,25.24
2018-07-15T11:14:00.535Z,25.18
2018-07-15T11:15:00.527Z,25.14
2018-07-15T11:16:00.506Z,25.16
2018-07-15T11:17:00.564Z,25.06
2018-07-15T11:18:00.537Z,25.21
2018-07-15T11:19:00.497Z,25.09
2018-07-15T11:20:00.453Z,25.18
2018-07-15T11:21:00.507Z,25.22
2018-07-15T11:22:00.485Z,25.07
2018-07-15T11:23:00.507Z,25.14
2018-07-15T11:24:00.472Z,25.19
2018-07-15T11:25:00.596Z,25.14
2018-07-15T11:26:00.575Z,25.07
2018-07-15T11:27:00.542Z,25.14
2018-07-15T11:28:02.364Z,25.12
2018-07-15T11:29:00.551Z,25.09
2018-07-15T11:30:00.589Z,25.15
2018-07-15T11:31:00.779Z,25.12
2018-07-15T11:32:00.534Z,25.11
2018-07-15T11:33:00.515Z,25.09
2018-07-15T11:34:00.572Z,25.07
2018-07-15T11:35:00.567Z,25.12
2018-07-15T11:36:00.678Z,25
2018-07-15T11:37:00.640Z,25.09
2018-07-15T11:38:00.541Z,25.11
2018-07-15T11:39:00.727Z,25.11
2018-07-15T11:40:00.644Z,25.06
2018-07-15T11:41:00.561Z,25.12
2018-07-15T11:42:00.584Z,25.11
2018-07-15T11:43:00.574Z,25.07
2018-07-15T11:44:00.580Z,25.09
2018-07-15T11:45:00.605Z,25.07
2018-07-15T11:46:00.511Z,25.07
2018-07-15T11:47:00.492Z,25.07
2018-07-15T11:48:00.491Z,25.18
2018-07-15T11:49:00.530Z,25.11
2018-07-15T11:50:00.513Z,25.06
2018-07-15T11:51:01.983Z,25.07
2018-07-15T11:52:00.533Z,25.11
2018-07-15T11:53:00.500Z,25.06
2018-07-15T11:54:00.511Z,25.11
2018-07-15T11:55:00.544Z,25.11
2018-07-15T11:56:00.505Z,25.09
2018-07-15T11:57:00.581Z,25.14
2018-07-15T11:58:00.586Z,25.12
2018-07-15T11:59:00.598Z,25.06
2018-07-15T12:00:00.577Z,25.11
2018-07-15T12:01:00.538Z,25.11
2018-07-15T12:02:00.681Z,25.14
2018-07-15T12:03:00.544Z,25.09
2018-07-15T12:04:00.615Z,25.11
2018-07-15T12:05:00.648Z,25.04
2018-07-15T12:06:00.619Z,25.14
2018-07-15T12:07:00.618Z,25.06
2018-07-15T12:08:00.660Z,25.12
2018-07-15T12:09:00.664Z,25.04
2018-07-15T12:10:00.620Z,25.11
2018-07-15T12:11:00.709Z,25.09
2018-07-15T12:12:00.742Z,25.06
2018-07-15T12:13:00.662Z,25.09
2018-07-15T12:14:00.597Z,25.15
2018-07-15T12:15:00.700Z,25.11
2018-07-15T12:16:00.617Z,25.07
2018-07-15T12:17:00.694Z,25.09
2018-07-15T12:19:19.452Z,25.03
2018-07-15T12:20:19.428Z,25.07
2018-07-15T12:21:20.687Z,25.07
2018-07-15T12:22:19.467Z,25.04
2018-07-15T12:23:19.424Z,25.14
2018-07-15T12:24:19.424Z,25.09
2018-07-15T12:25:19.424Z,25.09
2018-07-15T12:26:19.468Z,25.09
2018-07-15T12:27:19.685Z,25.09
2018-07-15T12:28:19.651Z,25.07
2018-07-15T12:29:19.572Z,25.04
2018-07-15T12:30:19.612Z,25.09
2018-07-15T12:31:20.180Z,25.11
2018-07-15T12:32:20.427Z,25.11
2018-07-15T12:33:19.452Z,25.09
2018-07-15T12:34:19.467Z,25.14
2018-07-15T12:35:19.441Z,25
2018-07-15T12:36:19.502Z,25.12
2018-07-15T12:37:19.507Z,25.04
2018-07-15T12:38:19.486Z,25.06
2018-07-15T12:39:21.340Z,25.06
2018-07-15T12:40:19.538Z,25.01
2018-07-15T12:41:19.567Z,25.09
2018-07-15T12:42:19.500Z,25.01
2018-07-15T12:43:19.540Z,25.06
2018-07-15T12:44:19.528Z,25.04
2018-07-15T12:45:19.745Z,25.04
2018-07-15T12:46:19.469Z,25
2018-07-15T12:47:20.163Z,25.09
2018-07-15T12:48:19.502Z,25.03
2018-07-15T12:49:19.559Z,25.06
2018-07-15T12:50:19.493Z,25.06
2018-07-15T12:51:20.533Z,25.06
2018-07-15T12:52:19.552Z,25.09
2018-07-15T12:53:19.567Z,25.04
2018-07-15T12:54:19.497Z,25.04
2018-07-15T12:55:19.501Z,25.07
2018-07-15T12:56:19.718Z,25.01
2018-07-15T12:57:19.686Z,25.11
2018-07-15T12:58:19.535Z,25.09
2018-07-15T12:59:20.293Z,25.09
2018-07-15T13:00:19.586Z,25.12
2018-07-15T13:01:19.656Z,25.11
2018-07-15T13:02:19.506Z,25.06
2018-07-15T13:03:19.580Z,25.01
2018-07-15T13:04:19.541Z,25.09
2018-07-15T13:05:19.589Z,25.09
2018-07-15T13:06:19.543Z,25.09
2018-07-15T13:07:19.643Z,25.11
2018-07-15T13:08:19.555Z,25.12
2018-07-15T13:09:19.453Z,25.18
2018-07-15T13:10:19.496Z,25.12
2018-07-15T13:11:19.603Z,25.14